EDV5429 KATL-KCSG
Flight info
| Callsign | EDV5429 |
|---|---|
| Flight time | 0h 19m |
| Altitude | 14000 |
| Route | HAALO3 SARGE |
| Aircraft | CRJ9/M-SDFGIRWY/S |
Departure
| Time | 2026-05-05 00:23 |
|---|---|
| Airport | Hartsfield Jackson Atlanta International Airport (KATL) |
Arrival
| Time | 2026-05-05 00:43 |
|---|---|
| Airport | Columbus Airport (KCSG) |
| Time | Latitude | Longitude | Altitude | Speed | Heading |
|---|---|---|---|---|---|
| 2026-05-05 00:06 | 33.64065 | -84.42873 | 1034 ft | 0 kts | 268° |
| 2026-05-05 00:13 | 33.64065 | -84.42867 | 1034 ft | 4 kts | 269° |
| 2026-05-05 00:14 | 33.64066 | -84.42840 | 1034 ft | 2 kts | 259° |
| 2026-05-05 00:14 | 33.64071 | -84.42828 | 1034 ft | 2 kts | 226° |
| 2026-05-05 00:14 | 33.64079 | -84.42820 | 1034 ft | 2 kts | 214° |
| 2026-05-05 00:14 | 33.64082 | -84.42817 | 1034 ft | 0 kts | 213° |
| 2026-05-05 00:16 | 33.64081 | -84.42818 | 1034 ft | 1 kts | 213° |
| 2026-05-05 00:16 | 33.64059 | -84.42821 | 1034 ft | 5 kts | 173° |
| 2026-05-05 00:17 | 33.64006 | -84.42814 | 1034 ft | 10 kts | 173° |
| 2026-05-05 00:17 | 33.63928 | -84.42809 | 1034 ft | 12 kts | 180° |
| 2026-05-05 00:17 | 33.63846 | -84.42809 | 1034 ft | 12 kts | 180° |
| 2026-05-05 00:17 | 33.63761 | -84.42809 | 1034 ft | 12 kts | 180° |
| 2026-05-05 00:18 | 33.63678 | -84.42794 | 1034 ft | 14 kts | 136° |
| 2026-05-05 00:18 | 33.63656 | -84.42663 | 1034 ft | 18 kts | 91° |
| 2026-05-05 00:18 | 33.63656 | -84.42514 | 1034 ft | 18 kts | 90° |
| 2026-05-05 00:18 | 33.63656 | -84.42363 | 1034 ft | 18 kts | 90° |
| 2026-05-05 00:19 | 33.63652 | -84.42212 | 1034 ft | 18 kts | 103° |
| 2026-05-05 00:19 | 33.63596 | -84.42081 | 1034 ft | 17 kts | 115° |
| 2026-05-05 00:19 | 33.63582 | -84.41939 | 1033 ft | 18 kts | 89° |
| 2026-05-05 00:19 | 33.63582 | -84.41790 | 1033 ft | 18 kts | 90° |
| 2026-05-05 00:20 | 33.63582 | -84.41639 | 1033 ft | 18 kts | 90° |
| 2026-05-05 00:20 | 33.63582 | -84.41484 | 1033 ft | 19 kts | 90° |
| 2026-05-05 00:20 | 33.63582 | -84.41326 | 1033 ft | 17 kts | 90° |
| 2026-05-05 00:20 | 33.63582 | -84.41186 | 1033 ft | 16 kts | 90° |
| 2026-05-05 00:21 | 33.63582 | -84.41091 | 1033 ft | 7 kts | 90° |
| 2026-05-05 00:21 | 33.63582 | -84.41030 | 1033 ft | 9 kts | 90° |
| 2026-05-05 00:21 | 33.63582 | -84.40948 | 1033 ft | 11 kts | 90° |
| 2026-05-05 00:21 | 33.63582 | -84.40853 | 1034 ft | 12 kts | 90° |
| 2026-05-05 00:22 | 33.63577 | -84.40779 | 1034 ft | 0 kts | 112° |
| 2026-05-05 00:22 | 33.63574 | -84.40773 | 1034 ft | 1 kts | 126° |
| 2026-05-05 00:22 | 33.63549 | -84.40755 | 1034 ft | 12 kts | 165° |
| 2026-05-05 00:22 | 33.63475 | -84.40794 | 1034 ft | 13 kts | 262° |
| 2026-05-05 00:23 | 33.63473 | -84.40944 | 1034 ft | 34 kts | 270° |
| 2026-05-05 00:23 | 33.63472 | -84.41555 | 1033 ft | 112 kts | 270° |
| 2026-05-05 00:23 | 33.63469 | -84.42757 | 1066 ft | 170 kts | 270° |
| 2026-05-05 00:23 | 33.63487 | -84.44244 | 1773 ft | 182 kts | 268° |
| 2026-05-05 00:24 | 33.63505 | -84.45846 | 2301 ft | 209 kts | 268° |
| 2026-05-05 00:24 | 33.63508 | -84.47730 | 2753 ft | 236 kts | 268° |
| 2026-05-05 00:24 | 33.63505 | -84.49774 | 3436 ft | 253 kts | 266° |
| 2026-05-05 00:24 | 33.63485 | -84.51937 | 4244 ft | 262 kts | 267° |
| 2026-05-05 00:25 | 33.63460 | -84.54138 | 5255 ft | 265 kts | 266° |
| 2026-05-05 00:25 | 33.63439 | -84.56354 | 6245 ft | 267 kts | 267° |
| 2026-05-05 00:25 | 33.63430 | -84.58595 | 7154 ft | 270 kts | 268° |
| 2026-05-05 00:25 | 33.63425 | -84.60859 | 8055 ft | 273 kts | 268° |
| 2026-05-05 00:26 | 33.63374 | -84.63139 | 8962 ft | 275 kts | 259° |
| 2026-05-05 00:26 | 33.62592 | -84.65198 | 9837 ft | 276 kts | 232° |
| 2026-05-05 00:26 | 33.61327 | -84.66939 | 10638 ft | 280 kts | 226° |
| 2026-05-05 00:26 | 33.59830 | -84.68449 | 11429 ft | 284 kts | 214° |
| 2026-05-05 00:27 | 33.58051 | -84.69515 | 12167 ft | 292 kts | 194° |
| 2026-05-05 00:27 | 33.56003 | -84.69596 | 12922 ft | 300 kts | 177° |
| 2026-05-05 00:27 | 33.53906 | -84.69250 | 13562 ft | 312 kts | 172° |
| 2026-05-05 00:27 | 33.51699 | -84.68760 | 13839 ft | 334 kts | 171° |
| 2026-05-05 00:28 | 33.49334 | -84.68208 | 13956 ft | 359 kts | 171° |
| 2026-05-05 00:28 | 33.46790 | -84.67644 | 14016 ft | 384 kts | 172° |
| 2026-05-05 00:28 | 33.44080 | -84.67119 | 14044 ft | 401 kts | 173° |
| 2026-05-05 00:28 | 33.41324 | -84.66606 | 14041 ft | 404 kts | 173° |
| 2026-05-05 00:29 | 33.38535 | -84.66100 | 14041 ft | 406 kts | 173° |
| 2026-05-05 00:29 | 33.35739 | -84.65585 | 14031 ft | 406 kts | 173° |
| 2026-05-05 00:29 | 33.32965 | -84.65069 | 14023 ft | 404 kts | 173° |
| 2026-05-05 00:29 | 33.30222 | -84.64805 | 13998 ft | 393 kts | 186° |
| 2026-05-05 00:30 | 33.27625 | -84.65355 | 13793 ft | 371 kts | 194° |
| 2026-05-05 00:30 | 33.25155 | -84.66085 | 13336 ft | 363 kts | 196° |
| 2026-05-05 00:30 | 33.22686 | -84.66918 | 12894 ft | 374 kts | 198° |
| 2026-05-05 00:30 | 33.20168 | -84.67834 | 12469 ft | 382 kts | 198° |
| 2026-05-05 00:31 | 33.17601 | -84.68723 | 12063 ft | 384 kts | 197° |
| 2026-05-05 00:31 | 33.15015 | -84.69502 | 11641 ft | 383 kts | 195° |
| 2026-05-05 00:31 | 33.12469 | -84.70215 | 11227 ft | 368 kts | 195° |
| 2026-05-05 00:31 | 33.10026 | -84.70887 | 10810 ft | 354 kts | 194° |
| 2026-05-05 00:32 | 33.07665 | -84.71528 | 10394 ft | 342 kts | 194° |
| 2026-05-05 00:32 | 33.05383 | -84.72177 | 9988 ft | 332 kts | 195° |
| 2026-05-05 00:32 | 33.03162 | -84.72819 | 9523 ft | 324 kts | 195° |
| 2026-05-05 00:32 | 33.00995 | -84.73442 | 9078 ft | 317 kts | 195° |
| 2026-05-05 00:33 | 32.98875 | -84.74055 | 8636 ft | 311 kts | 194° |
| 2026-05-05 00:33 | 32.96794 | -84.74654 | 8207 ft | 305 kts | 194° |
| 2026-05-05 00:33 | 32.94754 | -84.75243 | 7781 ft | 299 kts | 194° |
| 2026-05-05 00:33 | 32.93422 | -84.75626 | 7501 ft | 296 kts | 194° |
| 2026-05-05 00:34 | 32.90800 | -84.76381 | 6949 ft | 289 kts | 194° |
| 2026-05-05 00:34 | 32.88860 | -84.76940 | 6541 ft | 285 kts | 194° |
| 2026-05-05 00:34 | 32.86951 | -84.77489 | 6108 ft | 280 kts | 194° |
| 2026-05-05 00:34 | 32.85071 | -84.78028 | 5667 ft | 276 kts | 194° |
| 2026-05-05 00:35 | 32.83220 | -84.78565 | 5254 ft | 272 kts | 194° |
| 2026-05-05 00:35 | 32.81395 | -84.79092 | 4840 ft | 268 kts | 193° |
| 2026-05-05 00:35 | 32.79589 | -84.79607 | 4413 ft | 265 kts | 193° |
| 2026-05-05 00:35 | 32.78406 | -84.79947 | 4132 ft | 263 kts | 193° |
| 2026-05-05 00:36 | 32.76063 | -84.80620 | 3569 ft | 260 kts | 193° |
| 2026-05-05 00:36 | 32.74320 | -84.81094 | 3254 ft | 253 kts | 188° |
| 2026-05-05 00:36 | 32.72591 | -84.80818 | 3114 ft | 254 kts | 156° |
| 2026-05-05 00:36 | 32.71064 | -84.79783 | 3085 ft | 251 kts | 147° |
| 2026-05-05 00:37 | 32.69692 | -84.78616 | 3096 ft | 234 kts | 144° |
| 2026-05-05 00:37 | 32.68859 | -84.77849 | 3091 ft | 224 kts | 143° |
| 2026-05-05 00:37 | 32.67660 | -84.76726 | 3086 ft | 216 kts | 143° |
| 2026-05-05 00:37 | 32.66478 | -84.75629 | 3087 ft | 218 kts | 146° |
| 2026-05-05 00:38 | 32.65093 | -84.74982 | 3077 ft | 214 kts | 181° |
| 2026-05-05 00:38 | 32.63346 | -84.75849 | 2863 ft | 204 kts | 216° |
| 2026-05-05 00:38 | 32.62364 | -84.77033 | 2828 ft | 200 kts | 227° |
| 2026-05-05 00:38 | 32.61470 | -84.78275 | 2799 ft | 197 kts | 226° |
| 2026-05-05 00:39 | 32.60859 | -84.79093 | 2791 ft | 194 kts | 226° |
| 2026-05-05 00:39 | 32.60007 | -84.80280 | 2678 ft | 186 kts | 229° |
| 2026-05-05 00:39 | 32.59238 | -84.81480 | 2420 ft | 184 kts | 232° |
| 2026-05-05 00:39 | 32.58482 | -84.82719 | 2299 ft | 188 kts | 232° |
| 2026-05-05 00:40 | 32.57710 | -84.83950 | 2261 ft | 183 kts | 230° |
| 2026-05-05 00:40 | 32.56975 | -84.85108 | 2110 ft | 167 kts | 230° |
| 2026-05-05 00:40 | 32.56325 | -84.86144 | 1917 ft | 145 kts | 230° |
| 2026-05-05 00:40 | 32.55724 | -84.87099 | 1606 ft | 143 kts | 231° |
| 2026-05-05 00:41 | 32.55132 | -84.88046 | 1422 ft | 143 kts | 231° |
| 2026-05-05 00:41 | 32.54544 | -84.89003 | 1290 ft | 143 kts | 232° |
| 2026-05-05 00:41 | 32.53955 | -84.89937 | 1090 ft | 141 kts | 233° |
| 2026-05-05 00:41 | 32.53386 | -84.90863 | 872 ft | 137 kts | 234° |
| 2026-05-05 00:42 | 32.52823 | -84.91763 | 661 ft | 135 kts | 233° |
| 2026-05-05 00:42 | 32.52264 | -84.92678 | 470 ft | 137 kts | 234° |
| 2026-05-05 00:42 | 32.51732 | -84.93540 | 404 ft | 102 kts | 233° |
| 2026-05-05 00:42 | 32.51401 | -84.94075 | 403 ft | 60 kts | 234° |
| 2026-05-05 00:43 | 32.51229 | -84.94352 | 405 ft | 29 kts | 233° |
| 2026-05-05 00:43 | 32.51212 | -84.94462 | 403 ft | 11 kts | 319° |
| 2026-05-05 00:43 | 32.51280 | -84.94486 | 402 ft | 10 kts | 37° |
| 2026-05-05 00:43 | 32.51333 | -84.94405 | 405 ft | 14 kts | 53° |
| 2026-05-05 00:44 | 32.51395 | -84.94304 | 402 ft | 17 kts | 53° |
| 2026-05-05 00:44 | 32.51467 | -84.94187 | 401 ft | 18 kts | 54° |
| 2026-05-05 00:44 | 32.51553 | -84.94106 | 404 ft | 16 kts | 2° |
| 2026-05-05 00:44 | 32.51639 | -84.94097 | 405 ft | 8 kts | 44° |
| 2026-05-05 00:45 | 32.51665 | -84.94024 | 403 ft | 11 kts | 56° |
| 2026-05-05 00:45 | 32.51712 | -84.93949 | 403 ft | 12 kts | 53° |
| 2026-05-05 00:45 | 32.51749 | -84.93901 | 404 ft | 6 kts | 17° |
| 2026-05-05 00:45 | 32.51776 | -84.93906 | 405 ft | 2 kts | 331° |
| 2026-05-05 00:46 | 32.51786 | -84.93914 | 405 ft | 0 kts | 323° |